createdAt,value
2023-01-18T00:13:32.435Z,96874.47
2023-01-18T00:28:36.660Z,96853.52
2023-01-18T00:43:41.405Z,96839.34
2023-01-18T00:58:45.331Z,96846.63
2023-01-18T01:14:08.360Z,96848.83
2023-01-18T01:29:12.086Z,96845.06
2023-01-18T01:44:20.575Z,96848.29
2023-01-18T01:59:24.561Z,96841.77
2023-01-18T02:14:28.948Z,96840.29
2023-01-18T02:29:35.545Z,96843.55
2023-01-18T02:45:02.462Z,96831.59
2023-01-18T03:00:06.838Z,96820.62
2023-01-18T03:15:16.050Z,96801.02
2023-01-18T03:30:38.449Z,96797.78
2023-01-18T03:45:43.366Z,96805.43
2023-01-18T04:00:47.041Z,96803.10
2023-01-18T04:15:51.511Z,96786.23
2023-01-18T04:30:55.727Z,96783.00
2023-01-18T04:46:00.431Z,96801.80
2023-01-18T05:01:04.710Z,96833.87
2023-01-18T05:16:09.144Z,96841.31
2023-01-18T05:31:13.440Z,96832.66
2023-01-18T05:46:18.003Z,96816.98
2023-01-18T06:01:21.798Z,96812.19
2023-01-18T06:16:26.490Z,96822.50
2023-01-18T06:31:30.248Z,96847.84
2023-01-18T06:46:34.875Z,96856.54
2023-01-18T07:01:39.723Z,96863.80
2023-01-18T07:16:44.845Z,96878.17
2023-01-18T07:31:48.881Z,96890.89
2023-01-18T07:46:53.251Z,96904.20
2023-01-18T08:01:57.436Z,96921.73
2023-01-18T08:17:01.808Z,96937.00
2023-01-18T08:32:05.924Z,96961.32
2023-01-18T08:47:10.661Z,96957.17
2023-01-18T09:02:14.913Z,96954.88
2023-01-18T09:17:20.161Z,96964.30
2023-01-18T09:32:25.757Z,96968.54
2023-01-18T09:47:31.720Z,96974.41
2023-01-18T10:02:39.548Z,96985.39
2023-01-18T10:17:44.483Z,96986.45
2023-01-18T10:32:48.892Z,96984.30
2023-01-18T10:47:53.732Z,96993.48
2023-01-18T11:02:58.081Z,96999.60
2023-01-18T11:18:03.086Z,97000.67
2023-01-18T11:33:11.539Z,97003.66
2023-01-18T11:48:38.876Z,97008.73
2023-01-18T12:03:42.869Z,97035.15
2023-01-18T12:18:57.494Z,97062.13
2023-01-18T12:34:01.702Z,97071.57
2023-01-18T12:49:12.060Z,97076.70
2023-01-18T13:04:19.113Z,97106.54
2023-01-18T13:19:24.962Z,97127.13
2023-01-18T13:34:47.312Z,97145.52
2023-01-18T13:49:52.425Z,97169.64
2023-01-18T14:05:20.280Z,97193.35
2023-01-18T14:20:25.763Z,97229.48
2023-01-18T14:35:30.036Z,97246.05
2023-01-18T14:50:37.434Z,97270.77
2023-01-18T15:05:42.444Z,97297.85
2023-01-18T15:20:54.292Z,97328.61
2023-01-18T15:35:58.710Z,97358.73
2023-01-18T15:51:07.117Z,97387.09
2023-01-18T16:06:17.191Z,97413.54
2023-01-18T16:21:23.280Z,97420.16
2023-01-18T16:36:32.060Z,97434.89
2023-01-18T16:51:40.049Z,97449.03
2023-01-18T17:06:43.937Z,97473.95
2023-01-18T17:21:49.875Z,97502.34
2023-01-18T17:36:53.833Z,97524.63
2023-01-18T17:51:58.964Z,97545.62
2023-01-18T18:07:02.835Z,97564.87
2023-01-18T18:22:07.202Z,97586.27
2023-01-18T18:37:11.525Z,97605.61
2023-01-18T18:52:16.528Z,97622.49
2023-01-18T19:07:20.469Z,97637.41
2023-01-18T19:22:25.437Z,97663.92
2023-01-18T19:37:29.197Z,97674.33
2023-01-18T19:52:34.275Z,97700.33
2023-01-18T20:07:38.937Z,97710.64
2023-01-18T20:22:46.853Z,97743.67
2023-01-18T20:37:52.541Z,97765.20
2023-01-18T20:52:58.214Z,97797.81
2023-01-18T21:08:02.470Z,97817.55
2023-01-18T21:23:07.367Z,97828.69
2023-01-18T21:38:11.347Z,97838.80
2023-01-18T21:53:34.401Z,97855.02
2023-01-18T22:08:38.922Z,97852.94
2023-01-18T22:23:43.980Z,97889.72
2023-01-18T22:38:47.743Z,97931.67
2023-01-18T22:53:53.013Z,97960.89
2023-01-18T23:08:56.738Z,97972.13
2023-01-18T23:24:01.313Z,97986.89
2023-01-18T23:39:23.549Z,98016.77
2023-01-18T23:54:28.047Z,98044.53
